sensor_id;sensor_type;location;lat;lon;timestamp;P1;durP1;ratioP1;P2;durP2;ratioP2
49536;SDS011;74893;30.696;104.058;2024-01-30T03:54:24;315.48;;;60.80;;
49536;SDS011;74893;30.696;104.058;2024-01-30T03:56:51;66.25;;;39.80;;
49536;SDS011;74893;30.696;104.058;2024-01-30T04:06:05;54.30;;;37.33;;
49536;SDS011;74893;30.696;104.058;2024-01-30T04:08:32;53.88;;;34.75;;
49536;SDS011;74893;30.696;104.058;2024-01-30T04:11:46;52.17;;;36.15;;
49536;SDS011;74893;30.696;104.058;2024-01-30T04:14:14;52.47;;;34.53;;
49536;SDS011;74893;30.696;104.058;2024-01-30T04:16:41;49.83;;;35.15;;
49536;SDS011;74893;30.696;104.058;2024-01-30T04:20:49;49.58;;;34.17;;
49536;SDS011;74893;30.696;104.058;2024-01-30T04:23:15;49.17;;;34.33;;
49536;SDS011;74893;30.696;104.058;2024-01-30T04:28:09;48.45;;;33.92;;
49536;SDS011;74893;30.696;104.058;2024-01-30T04:30:38;49.80;;;34.22;;
49536;SDS011;74893;30.696;104.058;2024-01-30T04:33:07;51.80;;;34.92;;
49536;SDS011;74893;30.696;104.058;2024-01-30T04:38:00;46.67;;;32.97;;
49536;SDS011;74893;30.696;104.058;2024-01-30T04:40:27;45.47;;;32.95;;
49536;SDS011;74893;30.696;104.058;2024-01-30T04:42:54;47.72;;;34.17;;
49536;SDS011;74893;30.696;104.058;2024-01-30T04:47:47;49.70;;;33.47;;
49536;SDS011;74893;30.696;104.058;2024-01-30T04:52:40;46.58;;;34.08;;
49536;SDS011;74893;30.696;104.058;2024-01-30T07:40:15;37.08;;;27.60;;
49536;SDS011;74893;30.696;104.058;2024-01-30T07:42:42;39.88;;;28.40;;
49536;SDS011;74893;30.696;104.058;2024-01-30T07:45:09;36.35;;;27.77;;
49536;SDS011;74893;30.696;104.058;2024-01-30T07:47:36;38.67;;;28.60;;
49536;SDS011;74893;30.696;104.058;2024-01-30T07:50:03;42.45;;;29.33;;
49536;SDS011;74893;30.696;104.058;2024-01-30T07:52:30;37.05;;;27.98;;
49536;SDS011;74893;30.696;104.058;2024-01-30T07:54:57;39.33;;;28.15;;
49536;SDS011;74893;30.696;104.058;2024-01-30T07:57:24;38.60;;;28.15;;
49536;SDS011;74893;30.696;104.058;2024-01-30T07:59:51;39.38;;;29.27;;
49536;SDS011;74893;30.696;104.058;2024-01-30T08:02:18;39.78;;;28.52;;
49536;SDS011;74893;30.696;104.058;2024-01-30T08:04:46;39.67;;;29.60;;
49536;SDS011;74893;30.696;104.058;2024-01-30T08:07:14;41.00;;;29.52;;
49536;SDS011;74893;30.696;104.058;2024-01-30T08:09:43;40.97;;;28.67;;
49536;SDS011;74893;30.696;104.058;2024-01-30T08:12:10;38.35;;;28.65;;
49536;SDS011;74893;30.696;104.058;2024-01-30T08:14:38;41.00;;;29.08;;
49536;SDS011;74893;30.696;104.058;2024-01-30T08:17:06;39.40;;;29.58;;
49536;SDS011;74893;30.696;104.058;2024-01-30T08:19:33;40.35;;;29.02;;
49536;SDS011;74893;30.696;104.058;2024-01-30T08:22:00;40.53;;;30.45;;
49536;SDS011;74893;30.696;104.058;2024-01-30T08:24:30;39.22;;;29.55;;
49536;SDS011;74893;30.696;104.058;2024-01-30T08:26:57;41.58;;;30.17;;
49536;SDS011;74893;30.696;104.058;2024-01-30T08:29:23;42.75;;;30.40;;
49536;SDS011;74893;30.696;104.058;2024-01-30T08:31:50;42.55;;;30.52;;
49536;SDS011;74893;30.696;104.058;2024-01-30T08:34:17;44.42;;;30.23;;
49536;SDS011;74893;30.696;104.058;2024-01-30T08:36:44;39.80;;;30.90;;
49536;SDS011;74893;30.696;104.058;2024-01-30T08:39:11;38.65;;;29.42;;
49536;SDS011;74893;30.696;104.058;2024-01-30T08:41:38;41.15;;;30.73;;
49536;SDS011;74893;30.696;104.058;2024-01-30T08:44:05;44.03;;;31.02;;
49536;SDS011;74893;30.696;104.058;2024-01-30T08:46:36;40.75;;;30.52;;
49536;SDS011;74893;30.696;104.058;2024-01-30T08:49:06;39.95;;;29.90;;
49536;SDS011;74893;30.696;104.058;2024-01-30T08:51:33;44.22;;;31.10;;
49536;SDS011;74893;30.696;104.058;2024-01-30T08:54:00;41.20;;;30.50;;
49536;SDS011;74893;30.696;104.058;2024-01-30T08:56:28;43.28;;;31.13;;
49536;SDS011;74893;30.696;104.058;2024-01-30T08:58:55;44.17;;;30.27;;
49536;SDS011;74893;30.696;104.058;2024-01-30T09:01:25;41.75;;;30.40;;
49536;SDS011;74893;30.696;104.058;2024-01-30T09:03:52;41.13;;;30.55;;
49536;SDS011;74893;30.696;104.058;2024-01-30T09:06:19;43.53;;;32.63;;
49536;SDS011;74893;30.696;104.058;2024-01-30T09:08:46;43.15;;;29.98;;
49536;SDS011;74893;30.696;104.058;2024-01-30T09:11:13;41.85;;;30.98;;
49536;SDS011;74893;30.696;104.058;2024-01-30T09:13:40;46.45;;;32.33;;
49536;SDS011;74893;30.696;104.058;2024-01-30T09:16:09;43.97;;;31.13;;
49536;SDS011;74893;30.696;104.058;2024-01-30T09:18:35;45.28;;;31.77;;
49536;SDS011;74893;30.696;104.058;2024-01-30T09:21:02;47.72;;;32.05;;
49536;SDS011;74893;30.696;104.058;2024-01-30T09:23:29;43.28;;;31.75;;
49536;SDS011;74893;30.696;104.058;2024-01-30T09:25:56;41.58;;;31.15;;
49536;SDS011;74893;30.696;104.058;2024-01-30T09:28:23;41.25;;;31.38;;
49536;SDS011;74893;30.696;104.058;2024-01-30T09:30:50;44.45;;;32.03;;
49536;SDS011;74893;30.696;104.058;2024-01-30T09:33:17;46.42;;;32.65;;
49536;SDS011;74893;30.696;104.058;2024-01-30T09:35:44;43.95;;;31.90;;
49536;SDS011;74893;30.696;104.058;2024-01-30T09:38:10;45.28;;;32.38;;
49536;SDS011;74893;30.696;104.058;2024-01-30T09:40:37;46.03;;;33.28;;
49536;SDS011;74893;30.696;104.058;2024-01-30T09:43:04;46.67;;;32.70;;
49536;SDS011;74893;30.696;104.058;2024-01-30T09:45:31;45.88;;;33.55;;
49536;SDS011;74893;30.696;104.058;2024-01-30T09:47:59;47.83;;;33.20;;
49536;SDS011;74893;30.696;104.058;2024-01-30T09:50:26;51.55;;;33.22;;
49536;SDS011;74893;30.696;104.058;2024-01-30T09:52:53;46.10;;;33.17;;
49536;SDS011;74893;30.696;104.058;2024-01-30T09:55:24;46.40;;;33.17;;
49536;SDS011;74893;30.696;104.058;2024-01-30T09:57:51;47.17;;;33.72;;
49536;SDS011;74893;30.696;104.058;2024-01-30T10:00:18;46.35;;;33.20;;
49536;SDS011;74893;30.696;104.058;2024-01-30T10:02:45;48.22;;;34.03;;
49536;SDS011;74893;30.696;104.058;2024-01-30T10:05:14;47.33;;;34.17;;
49536;SDS011;74893;30.696;104.058;2024-01-30T10:07:49;45.00;;;32.55;;
49536;SDS011;74893;30.696;104.058;2024-01-30T10:10:21;47.25;;;34.15;;
49536;SDS011;74893;30.696;104.058;2024-01-30T10:12:49;47.20;;;34.00;;
49536;SDS011;74893;30.696;104.058;2024-01-30T10:15:16;46.00;;;34.38;;
49536;SDS011;74893;30.696;104.058;2024-01-30T10:17:45;49.75;;;34.42;;
49536;SDS011;74893;30.696;104.058;2024-01-30T10:20:12;47.53;;;33.70;;
49536;SDS011;74893;30.696;104.058;2024-01-30T10:22:40;46.20;;;33.78;;
49536;SDS011;74893;30.696;104.058;2024-01-30T10:25:11;48.10;;;33.90;;
49536;SDS011;74893;30.696;104.058;2024-01-30T10:27:39;50.40;;;34.42;;
49536;SDS011;74893;30.696;104.058;2024-01-30T10:30:08;47.80;;;35.15;;
49536;SDS011;74893;30.696;104.058;2024-01-30T10:32:35;53.47;;;34.15;;
49536;SDS011;74893;30.696;104.058;2024-01-30T10:35:02;49.85;;;33.97;;
49536;SDS011;74893;30.696;104.058;2024-01-30T10:37:29;47.13;;;32.47;;
49536;SDS011;74893;30.696;104.058;2024-01-30T10:39:59;46.47;;;33.30;;
49536;SDS011;74893;30.696;104.058;2024-01-30T10:42:32;51.20;;;34.60;;
49536;SDS011;74893;30.696;104.058;2024-01-30T10:45:12;49.42;;;33.85;;
49536;SDS011;74893;30.696;104.058;2024-01-30T10:50:11;47.72;;;34.60;;
49536;SDS011;74893;30.696;104.058;2024-01-30T10:52:39;48.58;;;34.67;;
49536;SDS011;74893;30.696;104.058;2024-01-30T10:55:10;52.50;;;35.10;;
49536;SDS011;74893;30.696;104.058;2024-01-30T10:57:37;50.15;;;35.45;;
49536;SDS011;74893;30.696;104.058;2024-01-30T11:00:10;50.78;;;35.15;;
49536;SDS011;74893;30.696;104.058;2024-01-30T11:02:46;55.28;;;36.00;;
49536;SDS011;74893;30.696;104.058;2024-01-30T11:05:14;52.22;;;35.05;;
49536;SDS011;74893;30.696;104.058;2024-01-30T11:07:41;47.22;;;33.28;;
49536;SDS011;74893;30.696;104.058;2024-01-30T11:10:08;47.78;;;35.00;;
49536;SDS011;74893;30.696;104.058;2024-01-30T11:12:39;53.47;;;35.63;;
49536;SDS011;74893;30.696;104.058;2024-01-30T11:15:13;45.70;;;33.88;;
49536;SDS011;74893;30.696;104.058;2024-01-30T11:20:25;51.17;;;35.38;;
49536;SDS011;74893;30.696;104.058;2024-01-30T11:22:59;51.72;;;33.85;;
49536;SDS011;74893;30.696;104.058;2024-01-30T11:25:31;47.80;;;34.05;;
49536;SDS011;74893;30.696;104.058;2024-01-30T11:27:58;48.08;;;33.70;;
49536;SDS011;74893;30.696;104.058;2024-01-30T11:30:29;49.08;;;34.75;;
49536;SDS011;74893;30.696;104.058;2024-01-30T11:35:43;48.90;;;35.05;;
49536;SDS011;74893;30.696;104.058;2024-01-30T11:38:13;48.75;;;34.92;;
49536;SDS011;74893;30.696;104.058;2024-01-30T11:40:40;50.03;;;35.97;;
49536;SDS011;74893;30.696;104.058;2024-01-30T11:43:08;50.70;;;35.15;;
49536;SDS011;74893;30.696;104.058;2024-01-30T11:45:35;54.20;;;37.50;;
49536;SDS011;74893;30.696;104.058;2024-01-30T11:48:03;52.30;;;36.78;;
49536;SDS011;74893;30.696;104.058;2024-01-30T11:50:33;51.80;;;37.08;;
49536;SDS011;74893;30.696;104.058;2024-01-30T11:53:04;52.47;;;35.53;;
49536;SDS011;74893;30.696;104.058;2024-01-30T11:55:31;52.15;;;37.38;;
49536;SDS011;74893;30.696;104.058;2024-01-30T11:57:58;52.67;;;37.67;;
49536;SDS011;74893;30.696;104.058;2024-01-30T12:00:25;51.67;;;36.65;;
49536;SDS011;74893;30.696;104.058;2024-01-30T12:02:53;53.00;;;35.95;;
49536;SDS011;74893;30.696;104.058;2024-01-30T12:05:26;52.28;;;36.92;;
49536;SDS011;74893;30.696;104.058;2024-01-30T12:07:53;51.22;;;37.17;;
49536;SDS011;74893;30.696;104.058;2024-01-30T12:10:24;52.25;;;36.50;;
49536;SDS011;74893;30.696;104.058;2024-01-30T12:12:51;53.13;;;36.50;;
49536;SDS011;74893;30.696;104.058;2024-01-30T12:15:19;57.65;;;38.15;;
49536;SDS011;74893;30.696;104.058;2024-01-30T12:17:48;54.40;;;37.33;;
49536;SDS011;74893;30.696;104.058;2024-01-30T12:20:17;54.50;;;36.78;;
49536;SDS011;74893;30.696;104.058;2024-01-30T12:22:45;55.65;;;38.15;;
49536;SDS011;74893;30.696;104.058;2024-01-30T12:25:14;53.55;;;37.40;;
49536;SDS011;74893;30.696;104.058;2024-01-30T12:27:46;54.15;;;37.33;;
49536;SDS011;74893;30.696;104.058;2024-01-30T12:30:19;56.58;;;38.50;;
49536;SDS011;74893;30.696;104.058;2024-01-30T12:32:47;57.17;;;38.47;;
49536;SDS011;74893;30.696;104.058;2024-01-30T12:35:17;52.03;;;37.38;;
49536;SDS011;74893;30.696;104.058;2024-01-30T12:37:45;58.20;;;39.33;;
49536;SDS011;74893;30.696;104.058;2024-01-30T12:40:16;55.80;;;38.67;;
49536;SDS011;74893;30.696;104.058;2024-01-30T12:42:46;59.92;;;39.47;;
49536;SDS011;74893;30.696;104.058;2024-01-30T12:45:21;55.47;;;39.55;;
49536;SDS011;74893;30.696;104.058;2024-01-30T12:47:51;58.25;;;39.88;;
49536;SDS011;74893;30.696;104.058;2024-01-30T12:50:19;57.28;;;40.70;;
49536;SDS011;74893;30.696;104.058;2024-01-30T12:52:46;57.17;;;40.65;;
49536;SDS011;74893;30.696;104.058;2024-01-30T12:55:13;59.47;;;41.03;;
49536;SDS011;74893;30.696;104.058;2024-01-30T12:57:40;59.83;;;41.70;;
49536;SDS011;74893;30.696;104.058;2024-01-30T13:00:08;59.22;;;40.83;;
49536;SDS011;74893;30.696;104.058;2024-01-30T13:02:35;60.58;;;41.72;;
49536;SDS011;74893;30.696;104.058;2024-01-30T13:05:03;58.63;;;41.17;;
49536;SDS011;74893;30.696;104.058;2024-01-30T13:07:30;59.58;;;41.78;;
49536;SDS011;74893;30.696;104.058;2024-01-30T13:09:57;64.47;;;43.45;;
49536;SDS011;74893;30.696;104.058;2024-01-30T13:12:31;60.72;;;41.97;;
49536;SDS011;74893;30.696;104.058;2024-01-30T13:15:01;61.05;;;41.25;;
49536;SDS011;74893;30.696;104.058;2024-01-30T13:17:29;62.05;;;42.80;;
49536;SDS011;74893;30.696;104.058;2024-01-30T13:19:56;61.25;;;42.88;;
49536;SDS011;74893;30.696;104.058;2024-01-30T13:22:23;64.20;;;43.33;;
49536;SDS011;74893;30.696;104.058;2024-01-30T13:24:50;58.63;;;43.10;;
49536;SDS011;74893;30.696;104.058;2024-01-30T13:27:17;63.90;;;43.85;;
49536;SDS011;74893;30.696;104.058;2024-01-30T13:29:44;62.47;;;42.42;;
49536;SDS011;74893;30.696;104.058;2024-01-30T13:32:11;63.15;;;42.70;;
49536;SDS011;74893;30.696;104.058;2024-01-30T13:34:38;61.33;;;41.63;;
49536;SDS011;74893;30.696;104.058;2024-01-30T13:37:05;62.58;;;43.17;;
49536;SDS011;74893;30.696;104.058;2024-01-30T13:39:32;61.55;;;42.22;;
49536;SDS011;74893;30.696;104.058;2024-01-30T13:42:05;58.42;;;41.95;;
49536;SDS011;74893;30.696;104.058;2024-01-30T13:44:35;60.20;;;41.95;;
49536;SDS011;74893;30.696;104.058;2024-01-30T13:47:02;58.65;;;40.13;;
49536;SDS011;74893;30.696;104.058;2024-01-30T13:49:30;55.65;;;39.22;;
49536;SDS011;74893;30.696;104.058;2024-01-30T13:51:57;54.83;;;37.80;;
49536;SDS011;74893;30.696;104.058;2024-01-30T13:54:24;52.30;;;37.17;;
49536;SDS011;74893;30.696;104.058;2024-01-30T13:56:52;55.40;;;37.20;;
49536;SDS011;74893;30.696;104.058;2024-01-30T13:59:19;53.30;;;38.13;;
49536;SDS011;74893;30.696;104.058;2024-01-30T14:01:49;53.22;;;37.70;;
49536;SDS011;74893;30.696;104.058;2024-01-30T14:04:17;49.65;;;36.85;;
49536;SDS011;74893;30.696;104.058;2024-01-30T14:06:44;53.80;;;38.17;;
49536;SDS011;74893;30.696;104.058;2024-01-30T14:09:11;54.45;;;35.92;;
49536;SDS011;74893;30.696;104.058;2024-01-30T14:11:41;51.55;;;35.10;;
49536;SDS011;74893;30.696;104.058;2024-01-30T14:14:08;50.65;;;35.42;;
49536;SDS011;74893;30.696;104.058;2024-01-30T14:16:35;49.58;;;35.08;;
49536;SDS011;74893;30.696;104.058;2024-01-30T14:19:02;51.92;;;35.00;;
49536;SDS011;74893;30.696;104.058;2024-01-30T14:21:29;50.00;;;34.53;;
49536;SDS011;74893;30.696;104.058;2024-01-30T14:23:57;46.97;;;34.22;;
49536;SDS011;74893;30.696;104.058;2024-01-30T14:26:24;46.40;;;32.30;;
49536;SDS011;74893;30.696;104.058;2024-01-30T14:28:51;46.63;;;33.10;;
49536;SDS011;74893;30.696;104.058;2024-01-30T14:31:17;47.10;;;32.58;;
49536;SDS011;74893;30.696;104.058;2024-01-30T14:33:45;41.95;;;31.45;;
49536;SDS011;74893;30.696;104.058;2024-01-30T14:36:12;42.92;;;32.10;;
49536;SDS011;74893;30.696;104.058;2024-01-30T14:38:39;44.85;;;31.02;;
49536;SDS011;74893;30.696;104.058;2024-01-30T14:41:06;44.15;;;30.52;;
49536;SDS011;74893;30.696;104.058;2024-01-30T14:43:33;46.40;;;30.83;;
49536;SDS011;74893;30.696;104.058;2024-01-30T14:46:00;45.85;;;32.47;;
49536;SDS011;74893;30.696;104.058;2024-01-30T14:48:27;44.35;;;30.80;;
49536;SDS011;74893;30.696;104.058;2024-01-30T14:50:53;43.85;;;31.52;;
49536;SDS011;74893;30.696;104.058;2024-01-30T14:53:20;45.33;;;31.20;;
49536;SDS011;74893;30.696;104.058;2024-01-30T14:55:47;42.13;;;29.00;;
49536;SDS011;74893;30.696;104.058;2024-01-30T14:58:14;45.85;;;31.27;;
49536;SDS011;74893;30.696;104.058;2024-01-30T15:00:41;44.42;;;30.02;;
49536;SDS011;74893;30.696;104.058;2024-01-30T15:03:08;43.08;;;29.55;;
49536;SDS011;74893;30.696;104.058;2024-01-30T15:05:35;40.80;;;28.92;;
49536;SDS011;74893;30.696;104.058;2024-01-30T15:08:02;44.85;;;29.52;;
49536;SDS011;74893;30.696;104.058;2024-01-30T15:10:30;44.10;;;30.75;;
49536;SDS011;74893;30.696;104.058;2024-01-30T15:13:02;44.60;;;30.65;;
49536;SDS011;74893;30.696;104.058;2024-01-30T15:15:31;45.72;;;31.65;;
49536;SDS011;74893;30.696;104.058;2024-01-30T15:17:58;46.35;;;31.30;;
49536;SDS011;74893;30.696;104.058;2024-01-30T15:20:25;43.00;;;30.33;;
49536;SDS011;74893;30.696;104.058;2024-01-30T15:22:55;44.05;;;29.80;;
49536;SDS011;74893;30.696;104.058;2024-01-30T15:25:22;42.67;;;30.45;;
49536;SDS011;74893;30.696;104.058;2024-01-30T15:27:49;43.03;;;29.52;;
49536;SDS011;74893;30.696;104.058;2024-01-30T15:30:16;44.15;;;31.60;;
49536;SDS011;74893;30.696;104.058;2024-01-30T15:32:46;43.00;;;30.38;;
49536;SDS011;74893;30.696;104.058;2024-01-30T15:35:13;44.78;;;30.55;;
49536;SDS011;74893;30.696;104.058;2024-01-30T15:37:40;46.78;;;30.30;;
49536;SDS011;74893;30.696;104.058;2024-01-30T15:40:20;41.35;;;30.30;;
49536;SDS011;74893;30.696;104.058;2024-01-30T15:42:51;39.95;;;28.60;;
49536;SDS011;74893;30.696;104.058;2024-01-30T15:45:18;41.38;;;29.27;;
49536;SDS011;74893;30.696;104.058;2024-01-30T15:47:45;42.75;;;30.38;;
49536;SDS011;74893;30.696;104.058;2024-01-30T15:50:12;43.88;;;30.20;;
49536;SDS011;74893;30.696;104.058;2024-01-30T15:52:39;46.15;;;31.45;;
49536;SDS011;74893;30.696;104.058;2024-01-30T15:55:06;44.30;;;31.08;;
49536;SDS011;74893;30.696;104.058;2024-01-30T15:59:59;45.03;;;30.20;;
49536;SDS011;74893;30.696;104.058;2024-01-30T16:02:26;44.03;;;30.50;;
49536;SDS011;74893;30.696;104.058;2024-01-30T16:04:55;42.38;;;29.42;;
49536;SDS011;74893;30.696;104.058;2024-01-30T16:07:22;44.13;;;31.45;;
49536;SDS011;74893;30.696;104.058;2024-01-30T16:09:50;43.95;;;30.33;;
49536;SDS011;74893;30.696;104.058;2024-01-30T16:12:16;45.53;;;29.92;;
49536;SDS011;74893;30.696;104.058;2024-01-30T16:14:43;42.22;;;29.63;;
49536;SDS011;74893;30.696;104.058;2024-01-30T16:17:10;45.22;;;31.08;;
49536;SDS011;74893;30.696;104.058;2024-01-30T16:19:37;39.78;;;28.70;;
49536;SDS011;74893;30.696;104.058;2024-01-30T16:22:04;41.60;;;29.58;;
49536;SDS011;74893;30.696;104.058;2024-01-30T16:24:31;46.25;;;31.35;;
49536;SDS011;74893;30.696;104.058;2024-01-30T16:26:58;43.35;;;29.65;;
49536;SDS011;74893;30.696;104.058;2024-01-30T16:29:25;43.88;;;29.42;;
49536;SDS011;74893;30.696;104.058;2024-01-30T16:31:55;43.75;;;29.70;;
49536;SDS011;74893;30.696;104.058;2024-01-30T16:34:29;45.42;;;30.60;;
49536;SDS011;74893;30.696;104.058;2024-01-30T16:36:59;44.20;;;31.27;;
49536;SDS011;74893;30.696;104.058;2024-01-30T16:39:49;46.08;;;31.90;;
49536;SDS011;74893;30.696;104.058;2024-01-30T16:42:16;51.45;;;34.20;;
49536;SDS011;74893;30.696;104.058;2024-01-30T16:44:45;50.75;;;34.20;;
49536;SDS011;74893;30.696;104.058;2024-01-30T16:47:12;55.08;;;36.03;;
49536;SDS011;74893;30.696;104.058;2024-01-30T16:49:39;48.97;;;34.25;;
49536;SDS011;74893;30.696;104.058;2024-01-30T16:52:07;50.90;;;35.15;;
49536;SDS011;74893;30.696;104.058;2024-01-30T16:54:34;54.60;;;35.42;;
49536;SDS011;74893;30.696;104.058;2024-01-30T16:57:04;52.38;;;36.47;;
49536;SDS011;74893;30.696;104.058;2024-01-30T16:59:31;52.83;;;38.15;;
49536;SDS011;74893;30.696;104.058;2024-01-30T17:01:58;58.42;;;37.80;;
49536;SDS011;74893;30.696;104.058;2024-01-30T17:04:26;55.72;;;38.15;;
49536;SDS011;74893;30.696;104.058;2024-01-30T17:06:54;55.97;;;38.50;;
49536;SDS011;74893;30.696;104.058;2024-01-30T17:09:20;59.05;;;39.95;;
49536;SDS011;74893;30.696;104.058;2024-01-30T17:11:48;58.42;;;38.28;;
49536;SDS011;74893;30.696;104.058;2024-01-30T17:14:14;58.40;;;40.17;;
49536;SDS011;74893;30.696;104.058;2024-01-30T17:16:43;54.53;;;39.50;;
49536;SDS011;74893;30.696;104.058;2024-01-30T17:19:11;57.97;;;38.35;;
49536;SDS011;74893;30.696;104.058;2024-01-30T17:21:38;59.42;;;39.83;;
49536;SDS011;74893;30.696;104.058;2024-01-30T17:24:07;53.72;;;38.53;;
49536;SDS011;74893;30.696;104.058;2024-01-30T17:26:36;61.03;;;40.17;;
49536;SDS011;74893;30.696;104.058;2024-01-30T17:29:03;59.08;;;39.08;;
49536;SDS011;74893;30.696;104.058;2024-01-30T17:31:30;62.55;;;41.88;;
49536;SDS011;74893;30.696;104.058;2024-01-30T17:33:57;57.42;;;39.72;;
49536;SDS011;74893;30.696;104.058;2024-01-30T17:36:24;63.83;;;40.53;;
49536;SDS011;74893;30.696;104.058;2024-01-30T17:38:51;63.53;;;41.65;;
49536;SDS011;74893;30.696;104.058;2024-01-30T17:41:18;63.28;;;41.20;;
49536;SDS011;74893;30.696;104.058;2024-01-30T17:43:45;65.45;;;41.72;;
49536;SDS011;74893;30.696;104.058;2024-01-30T17:46:11;65.78;;;41.67;;
49536;SDS011;74893;30.696;104.058;2024-01-30T17:48:38;63.03;;;41.78;;
49536;SDS011;74893;30.696;104.058;2024-01-30T17:51:05;61.75;;;42.67;;
49536;SDS011;74893;30.696;104.058;2024-01-30T17:53:32;62.30;;;41.83;;
49536;SDS011;74893;30.696;104.058;2024-01-30T17:55:59;65.28;;;42.78;;
49536;SDS011;74893;30.696;104.058;2024-01-30T17:58:31;62.80;;;42.60;;
49536;SDS011;74893;30.696;104.058;2024-01-30T18:00:58;68.60;;;42.40;;
49536;SDS011;74893;30.696;104.058;2024-01-30T18:03:25;66.28;;;43.25;;
49536;SDS011;74893;30.696;104.058;2024-01-30T18:05:52;63.78;;;43.72;;
49536;SDS011;74893;30.696;104.058;2024-01-30T18:08:21;69.13;;;43.67;;
49536;SDS011;74893;30.696;104.058;2024-01-30T18:10:48;68.10;;;44.65;;
49536;SDS011;74893;30.696;104.058;2024-01-30T18:13:15;64.20;;;43.67;;
49536;SDS011;74893;30.696;104.058;2024-01-30T18:15:43;65.72;;;43.42;;
49536;SDS011;74893;30.696;104.058;2024-01-30T18:18:10;67.32;;;45.67;;
49536;SDS011;74893;30.696;104.058;2024-01-30T18:20:39;67.50;;;44.33;;
49536;SDS011;74893;30.696;104.058;2024-01-30T18:23:09;63.30;;;44.00;;
49536;SDS011;74893;30.696;104.058;2024-01-30T18:25:36;65.90;;;44.95;;
49536;SDS011;74893;30.696;104.058;2024-01-30T18:28:03;67.35;;;44.15;;
49536;SDS011;74893;30.696;104.058;2024-01-30T18:30:31;66.93;;;45.60;;
49536;SDS011;74893;30.696;104.058;2024-01-30T18:32:57;71.30;;;45.83;;
49536;SDS011;74893;30.696;104.058;2024-01-30T18:35:24;67.85;;;44.30;;
49536;SDS011;74893;30.696;104.058;2024-01-30T18:37:51;66.85;;;45.13;;
49536;SDS011;74893;30.696;104.058;2024-01-30T18:42:47;62.80;;;45.30;;
49536;SDS011;74893;30.696;104.058;2024-01-30T18:45:14;70.18;;;46.53;;
49536;SDS011;74893;30.696;104.058;2024-01-30T18:47:41;67.45;;;46.22;;
49536;SDS011;74893;30.696;104.058;2024-01-30T18:50:08;68.70;;;46.55;;
49536;SDS011;74893;30.696;104.058;2024-01-30T18:52:35;68.45;;;47.20;;
49536;SDS011;74893;30.696;104.058;2024-01-30T18:55:02;69.35;;;46.80;;
49536;SDS011;74893;30.696;104.058;2024-01-30T18:57:30;67.15;;;45.33;;
49536;SDS011;74893;30.696;104.058;2024-01-30T18:59:56;70.10;;;47.03;;
49536;SDS011;74893;30.696;104.058;2024-01-30T19:02:23;67.07;;;46.00;;
49536;SDS011;74893;30.696;104.058;2024-01-30T19:04:51;68.05;;;46.67;;
49536;SDS011;74893;30.696;104.058;2024-01-30T19:07:18;72.88;;;47.63;;
49536;SDS011;74893;30.696;104.058;2024-01-30T19:09:46;70.68;;;46.88;;
49536;SDS011;74893;30.696;104.058;2024-01-30T19:12:14;68.72;;;47.75;;
49536;SDS011;74893;30.696;104.058;2024-01-30T19:14:41;74.97;;;47.88;;
49536;SDS011;74893;30.696;104.058;2024-01-30T19:17:08;71.35;;;47.78;;
49536;SDS011;74893;30.696;104.058;2024-01-30T19:19:34;68.68;;;46.45;;
49536;SDS011;74893;30.696;104.058;2024-01-30T19:24:27;70.65;;;47.88;;
49536;SDS011;74893;30.696;104.058;2024-01-30T19:26:55;67.32;;;46.50;;
49536;SDS011;74893;30.696;104.058;2024-01-30T19:29:22;74.07;;;49.50;;
49536;SDS011;74893;30.696;104.058;2024-01-30T19:34:15;65.93;;;47.03;;
49536;SDS011;74893;30.696;104.058;2024-01-30T19:39:08;69.00;;;45.72;;
49536;SDS011;74893;30.696;104.058;2024-01-30T19:41:39;70.90;;;47.60;;
49536;SDS011;74893;30.696;104.058;2024-01-30T19:44:08;73.18;;;48.45;;
49536;SDS011;74893;30.696;104.058;2024-01-30T19:46:35;69.65;;;47.08;;
49536;SDS011;74893;30.696;104.058;2024-01-30T19:49:02;69.18;;;47.92;;
49536;SDS011;74893;30.696;104.058;2024-01-30T19:51:32;71.88;;;46.70;;
49536;SDS011;74893;30.696;104.058;2024-01-30T19:53:58;70.25;;;49.35;;
49536;SDS011;74893;30.696;104.058;2024-01-30T19:58:51;75.13;;;47.75;;
49536;SDS011;74893;30.696;104.058;2024-01-30T20:01:19;65.95;;;46.53;;
49536;SDS011;74893;30.696;104.058;2024-01-30T20:03:46;70.50;;;47.45;;
49536;SDS011;74893;30.696;104.058;2024-01-30T20:06:13;72.03;;;48.78;;
49536;SDS011;74893;30.696;104.058;2024-01-30T20:08:39;70.63;;;46.78;;
49536;SDS011;74893;30.696;104.058;2024-01-30T20:13:42;71.85;;;48.15;;
49536;SDS011;74893;30.696;104.058;2024-01-30T20:18:35;70.20;;;48.22;;
49536;SDS011;74893;30.696;104.058;2024-01-30T20:21:02;71.63;;;47.22;;
49536;SDS011;74893;30.696;104.058;2024-01-30T20:23:30;70.15;;;49.30;;
49536;SDS011;74893;30.696;104.058;2024-01-30T20:25:57;67.97;;;47.78;;
49536;SDS011;74893;30.696;104.058;2024-01-30T20:28:24;70.80;;;48.10;;
49536;SDS011;74893;30.696;104.058;2024-01-30T20:30:51;66.35;;;47.08;;
49536;SDS011;74893;30.696;104.058;2024-01-30T20:33:18;68.15;;;47.35;;
49536;SDS011;74893;30.696;104.058;2024-01-30T20:38:14;70.50;;;47.30;;
49536;SDS011;74893;30.696;104.058;2024-01-30T20:40:41;68.78;;;47.35;;
49536;SDS011;74893;30.696;104.058;2024-01-30T20:43:08;72.78;;;48.88;;
49536;SDS011;74893;30.696;104.058;2024-01-30T20:45:36;71.72;;;48.63;;
49536;SDS011;74893;30.696;104.058;2024-01-30T20:50:29;68.45;;;47.67;;
49536;SDS011;74893;30.696;104.058;2024-01-30T20:52:56;70.93;;;48.80;;
49536;SDS011;74893;30.696;104.058;2024-01-30T20:55:23;71.97;;;48.92;;
49536;SDS011;74893;30.696;104.058;2024-01-30T21:00:16;71.18;;;47.63;;
49536;SDS011;74893;30.696;104.058;2024-01-30T21:02:43;71.57;;;48.45;;
49536;SDS011;74893;30.696;104.058;2024-01-30T21:05:10;72.45;;;50.55;;
49536;SDS011;74893;30.696;104.058;2024-01-30T21:07:37;73.43;;;50.28;;
49536;SDS011;74893;30.696;104.058;2024-01-30T21:10:04;75.60;;;49.05;;
49536;SDS011;74893;30.696;104.058;2024-01-30T21:12:32;72.63;;;48.80;;
49536;SDS011;74893;30.696;104.058;2024-01-30T21:14:59;69.47;;;47.97;;
49536;SDS011;74893;30.696;104.058;2024-01-30T21:19:52;71.88;;;48.03;;
49536;SDS011;74893;30.696;104.058;2024-01-30T21:24:44;74.70;;;48.53;;
49536;SDS011;74893;30.696;104.058;2024-01-30T21:29:37;71.57;;;48.10;;
49536;SDS011;74893;30.696;104.058;2024-01-30T21:32:06;70.13;;;48.95;;
49536;SDS011;74893;30.696;104.058;2024-01-30T21:34:33;73.53;;;48.58;;
49536;SDS011;74893;30.696;104.058;2024-01-30T21:39:26;72.35;;;48.75;;
49536;SDS011;74893;30.696;104.058;2024-01-30T21:41:53;72.85;;;50.00;;